Crystal, Minnesota
Current Conditions -  °F | °C
As of 10:36 AM on Wednesday 26 Nov 2014 (Local Time) from KMIC Reporting Station
Light Snow Light Snow  
Wind Chill: 17°   Ceiling: 2100
Heat Index: 26°   Visibility: 1mi
Dew Point: 21°   Wind: 9mph
Humidity: 81%   Direction: 20°NNE
Pressure: 30.18"   Gusts: NA
Location:  45.03°N, 93.36°W
Report Text: KMIC 261636Z 02008KT 1SM -SN BKN021 OVC033 M03/M06 A3018 RMK AO2 P0001 T10331061
Loading
Personal Weather Stations






























Interactive Weather Map New forecast layout! Learn more

10-Day Weather Forecast

Advertisements
Track Severe Weather on mobile